sensor_id;sensor_type;location;lat;lon;timestamp;P1;durP1;ratioP1;P2;durP2;ratioP2
21569;SDS011;57598;50.888;4.746;2022-12-29T00:27:47;46.22;;;41.35;;
21569;SDS011;57598;50.888;4.746;2022-12-29T10:06:24;33.95;;;31.40;;
21569;SDS011;57598;50.888;4.746;2022-12-29T10:09:01;32.35;;;30.08;;
21569;SDS011;57598;50.888;4.746;2022-12-29T10:11:50;30.67;;;28.63;;
21569;SDS011;57598;50.888;4.746;2022-12-29T10:14:32;30.60;;;28.65;;
21569;SDS011;57598;50.888;4.746;2022-12-29T10:17:12;30.65;;;28.80;;
21569;SDS011;57598;50.888;4.746;2022-12-29T10:19:55;31.90;;;29.23;;
21569;SDS011;57598;50.888;4.746;2022-12-29T10:22:42;34.63;;;32.17;;
21569;SDS011;57598;50.888;4.746;2022-12-29T10:25:19;33.08;;;30.73;;
21569;SDS011;57598;50.888;4.746;2022-12-29T10:27:49;33.67;;;30.90;;
21569;SDS011;57598;50.888;4.746;2022-12-29T10:30:20;33.38;;;30.80;;
21569;SDS011;57598;50.888;4.746;2022-12-29T10:32:47;32.38;;;30.35;;
21569;SDS011;57598;50.888;4.746;2022-12-29T10:40:43;31.80;;;29.90;;
21569;SDS011;57598;50.888;4.746;2022-12-29T10:43:24;33.67;;;30.98;;
21569;SDS011;57598;50.888;4.746;2022-12-29T10:45:53;34.20;;;31.77;;
21569;SDS011;57598;50.888;4.746;2022-12-29T10:48:24;32.97;;;30.38;;
21569;SDS011;57598;50.888;4.746;2022-12-29T10:50:55;43.58;;;40.03;;
21569;SDS011;57598;50.888;4.746;2022-12-29T10:53:25;33.53;;;30.95;;
21569;SDS011;57598;50.888;4.746;2022-12-29T10:56:03;33.75;;;31.65;;
21569;SDS011;57598;50.888;4.746;2022-12-29T10:58:48;43.47;;;33.25;;
21569;SDS011;57598;50.888;4.746;2022-12-29T11:01:18;36.03;;;33.00;;
21569;SDS011;57598;50.888;4.746;2022-12-29T11:03:48;32.58;;;30.65;;
21569;SDS011;57598;50.888;4.746;2022-12-29T11:06:26;34.83;;;32.17;;
21569;SDS011;57598;50.888;4.746;2022-12-29T11:08:56;33.60;;;31.52;;
21569;SDS011;57598;50.888;4.746;2022-12-29T11:11:32;35.67;;;33.35;;
21569;SDS011;57598;50.888;4.746;2022-12-29T11:14:02;35.00;;;32.80;;
21569;SDS011;57598;50.888;4.746;2022-12-29T11:16:37;36.42;;;33.97;;
21569;SDS011;57598;50.888;4.746;2022-12-29T11:19:18;36.20;;;33.53;;
21569;SDS011;57598;50.888;4.746;2022-12-29T11:21:49;36.78;;;33.45;;
21569;SDS011;57598;50.888;4.746;2022-12-29T11:27:10;34.58;;;32.47;;
21569;SDS011;57598;50.888;4.746;2022-12-29T11:30:23;36.03;;;33.72;;
21569;SDS011;57598;50.888;4.746;2022-12-29T11:32:55;36.17;;;33.72;;
21569;SDS011;57598;50.888;4.746;2022-12-29T11:35:31;35.85;;;33.35;;
21569;SDS011;57598;50.888;4.746;2022-12-29T11:41:41;35.53;;;32.05;;
21569;SDS011;57598;50.888;4.746;2022-12-29T11:48:08;34.92;;;32.25;;
21569;SDS011;57598;50.888;4.746;2022-12-29T11:50:43;35.40;;;32.90;;
21569;SDS011;57598;50.888;4.746;2022-12-29T11:53:19;35.45;;;32.90;;
21569;SDS011;57598;50.888;4.746;2022-12-29T11:55:50;35.70;;;32.70;;
21569;SDS011;57598;50.888;4.746;2022-12-29T12:00:56;34.20;;;32.10;;
21569;SDS011;57598;50.888;4.746;2022-12-29T12:03:27;36.65;;;33.95;;
21569;SDS011;57598;50.888;4.746;2022-12-29T12:06:01;36.42;;;34.03;;
21569;SDS011;57598;50.888;4.746;2022-12-29T12:08:37;38.45;;;34.78;;
21569;SDS011;57598;50.888;4.746;2022-12-29T12:11:11;37.47;;;35.08;;
21569;SDS011;57598;50.888;4.746;2022-12-29T12:13:47;35.35;;;33.25;;
21569;SDS011;57598;50.888;4.746;2022-12-29T12:16:31;39.25;;;36.53;;
21569;SDS011;57598;50.888;4.746;2022-12-29T12:19:40;38.40;;;35.92;;
21569;SDS011;57598;50.888;4.746;2022-12-29T12:22:15;39.55;;;37.22;;
21569;SDS011;57598;50.888;4.746;2022-12-29T12:24:57;37.10;;;34.90;;
21569;SDS011;57598;50.888;4.746;2022-12-29T12:28:00;39.97;;;36.33;;
21569;SDS011;57598;50.888;4.746;2022-12-29T12:31:11;38.50;;;36.20;;
21569;SDS011;57598;50.888;4.746;2022-12-29T12:34:15;39.25;;;36.92;;
21569;SDS011;57598;50.888;4.746;2022-12-29T12:37:01;39.13;;;36.72;;
21569;SDS011;57598;50.888;4.746;2022-12-29T12:46:04;41.65;;;38.42;;
21569;SDS011;57598;50.888;4.746;2022-12-29T12:54:30;41.03;;;38.28;;
21569;SDS011;57598;50.888;4.746;2022-12-29T13:02:15;40.28;;;37.78;;
21569;SDS011;57598;50.888;4.746;2022-12-29T13:05:03;37.72;;;35.42;;
21569;SDS011;57598;50.888;4.746;2022-12-29T13:07:57;37.20;;;35.00;;
21569;SDS011;57598;50.888;4.746;2022-12-29T13:10:46;35.83;;;33.72;;
21569;SDS011;57598;50.888;4.746;2022-12-29T13:13:36;40.40;;;37.20;;
21569;SDS011;57598;50.888;4.746;2022-12-29T13:24:36;36.25;;;33.70;;
21569;SDS011;57598;50.888;4.746;2022-12-29T15:18:13;38.92;;;36.53;;
21569;SDS011;57598;50.888;4.746;2022-12-29T15:24:51;39.60;;;37.20;;
21569;SDS011;57598;50.888;4.746;2022-12-29T15:53:18;165.75;;;155.40;;
21569;SDS011;57598;50.888;4.746;2022-12-29T15:55:56;121.78;;;113.35;;
21569;SDS011;57598;50.888;4.746;2022-12-29T15:58:27;87.18;;;80.15;;
21569;SDS011;57598;50.888;4.746;2022-12-29T16:00:56;70.80;;;64.72;;
21569;SDS011;57598;50.888;4.746;2022-12-29T16:03:26;61.42;;;55.90;;
21569;SDS011;57598;50.888;4.746;2022-12-29T16:06:07;58.97;;;53.40;;
21569;SDS011;57598;50.888;4.746;2022-12-29T16:09:01;55.20;;;50.20;;
21569;SDS011;57598;50.888;4.746;2022-12-29T16:12:06;51.88;;;46.50;;
21569;SDS011;57598;50.888;4.746;2022-12-29T16:14:56;48.28;;;43.58;;
21569;SDS011;57598;50.888;4.746;2022-12-29T16:17:31;47.08;;;42.55;;
21569;SDS011;57598;50.888;4.746;2022-12-29T16:20:14;47.83;;;43.13;;
21569;SDS011;57598;50.888;4.746;2022-12-29T16:22:47;45.72;;;41.33;;
21569;SDS011;57598;50.888;4.746;2022-12-29T16:25:19;46.70;;;42.20;;
21569;SDS011;57598;50.888;4.746;2022-12-29T16:27:50;47.45;;;42.75;;
21569;SDS011;57598;50.888;4.746;2022-12-29T16:30:19;46.90;;;42.17;;
21569;SDS011;57598;50.888;4.746;2022-12-29T16:32:48;46.83;;;42.03;;
21569;SDS011;57598;50.888;4.746;2022-12-29T16:35:19;47.25;;;42.45;;
21569;SDS011;57598;50.888;4.746;2022-12-29T16:40:54;48.00;;;43.00;;
21569;SDS011;57598;50.888;4.746;2022-12-29T16:43:24;47.42;;;42.47;;
21569;SDS011;57598;50.888;4.746;2022-12-29T16:48:49;47.85;;;42.75;;
21569;SDS011;57598;50.888;4.746;2022-12-29T16:51:21;49.00;;;43.60;;
21569;SDS011;57598;50.888;4.746;2022-12-29T16:53:56;57.47;;;44.35;;
21569;SDS011;57598;50.888;4.746;2022-12-29T16:56:26;49.47;;;44.08;;
21569;SDS011;57598;50.888;4.746;2022-12-29T16:59:00;52.50;;;44.38;;
21569;SDS011;57598;50.888;4.746;2022-12-29T17:01:35;56.55;;;45.42;;
21569;SDS011;57598;50.888;4.746;2022-12-29T17:04:06;52.38;;;46.75;;
21569;SDS011;57598;50.888;4.746;2022-12-29T17:06:36;51.42;;;45.90;;
21569;SDS011;57598;50.888;4.746;2022-12-29T17:09:13;52.47;;;47.25;;
21569;SDS011;57598;50.888;4.746;2022-12-29T17:11:45;53.65;;;48.33;;
21569;SDS011;57598;50.888;4.746;2022-12-29T17:14:23;62.55;;;51.70;;
21569;SDS011;57598;50.888;4.746;2022-12-29T17:30:19;54.60;;;49.50;;
21569;SDS011;57598;50.888;4.746;2022-12-29T17:33:36;57.30;;;52.00;;
21569;SDS011;57598;50.888;4.746;2022-12-29T18:48:43;55.70;;;51.30;;
21569;SDS011;57598;50.888;4.746;2022-12-29T18:57:14;56.45;;;52.08;;
21569;SDS011;57598;50.888;4.746;2022-12-29T19:02:17;55.00;;;50.70;;
21569;SDS011;57598;50.888;4.746;2022-12-29T19:04:50;57.83;;;52.65;;
21569;SDS011;57598;50.888;4.746;2022-12-29T19:14:16;58.58;;;54.08;;
21569;SDS011;57598;50.888;4.746;2022-12-29T19:16:44;55.17;;;50.97;;
21569;SDS011;57598;50.888;4.746;2022-12-29T19:19:15;55.15;;;51.05;;
21569;SDS011;57598;50.888;4.746;2022-12-29T19:21:43;53.40;;;49.30;;
21569;SDS011;57598;50.888;4.746;2022-12-29T19:24:25;54.42;;;50.28;;
21569;SDS011;57598;50.888;4.746;2022-12-29T19:37:58;55.05;;;51.13;;
21569;SDS011;57598;50.888;4.746;2022-12-29T19:40:26;56.33;;;52.13;;
21569;SDS011;57598;50.888;4.746;2022-12-29T19:42:54;54.50;;;50.35;;
21569;SDS011;57598;50.888;4.746;2022-12-29T19:45:22;54.45;;;50.55;;
21569;SDS011;57598;50.888;4.746;2022-12-29T19:47:49;55.42;;;50.90;;
21569;SDS011;57598;50.888;4.746;2022-12-29T19:52:53;55.78;;;50.35;;
21569;SDS011;57598;50.888;4.746;2022-12-29T19:55:26;53.55;;;49.33;;
21569;SDS011;57598;50.888;4.746;2022-12-29T21:31:16;55.78;;;50.92;;
21569;SDS011;57598;50.888;4.746;2022-12-29T21:33:51;53.42;;;49.38;;
21569;SDS011;57598;50.888;4.746;2022-12-29T22:13:44;55.80;;;51.70;;
21569;SDS011;57598;50.888;4.746;2022-12-29T22:16:11;56.47;;;52.38;;
21569;SDS011;57598;50.888;4.746;2022-12-29T22:18:39;56.65;;;52.45;;
21569;SDS011;57598;50.888;4.746;2022-12-29T22:21:07;57.17;;;52.97;;
21569;SDS011;57598;50.888;4.746;2022-12-29T22:23:38;56.60;;;52.40;;
21569;SDS011;57598;50.888;4.746;2022-12-29T22:26:06;58.53;;;54.00;;
21569;SDS011;57598;50.888;4.746;2022-12-29T22:28:35;57.05;;;52.53;;
21569;SDS011;57598;50.888;4.746;2022-12-29T22:31:05;56.65;;;52.45;;
21569;SDS011;57598;50.888;4.746;2022-12-29T22:33:45;56.95;;;52.83;;
21569;SDS011;57598;50.888;4.746;2022-12-29T22:36:13;58.50;;;54.28;;
21569;SDS011;57598;50.888;4.746;2022-12-29T22:42:03;61.67;;;57.13;;
21569;SDS011;57598;50.888;4.746;2022-12-29T22:44:31;58.45;;;54.15;;
21569;SDS011;57598;50.888;4.746;2022-12-29T22:50:02;58.30;;;54.00;;
21569;SDS011;57598;50.888;4.746;2022-12-29T22:52:48;60.20;;;55.70;;
21569;SDS011;57598;50.888;4.746;2022-12-29T22:55:19;62.30;;;57.33;;
21569;SDS011;57598;50.888;4.746;2022-12-29T22:58:24;62.30;;;57.70;;
21569;SDS011;57598;50.888;4.746;2022-12-29T23:01:36;58.90;;;54.40;;
21569;SDS011;57598;50.888;4.746;2022-12-29T23:04:52;62.05;;;57.35;;
21569;SDS011;57598;50.888;4.746;2022-12-29T23:07:27;61.65;;;56.58;;
21569;SDS011;57598;50.888;4.746;2022-12-29T23:09:54;64.35;;;59.30;;
21569;SDS011;57598;50.888;4.746;2022-12-29T23:12:27;60.38;;;55.78;;
21569;SDS011;57598;50.888;4.746;2022-12-29T23:14:55;63.00;;;58.13;;
21569;SDS011;57598;50.888;4.746;2022-12-29T23:17:23;62.15;;;57.45;;
21569;SDS011;57598;50.888;4.746;2022-12-29T23:19:51;59.10;;;54.70;;
